Alma, Michigan
Current Conditions -  °F | °C
As of 2:33 AM on Saturday 25 Oct 2014 (Local Time) from KAMN Reporting Station
Haze Haze  
Wind Chill: 43°   Ceiling: Unl
Heat Index: 45°   Visibility: 1.2mi
Dew Point: 45°   Wind: 5mph
Humidity: 98%   Direction: 190°S
Pressure: 29.89"   Gusts: NA
Location:  43.38°N, 84.66°W
Report Text: KAMN 250633Z AUTO 19004KT 1 1/4SM BR SCT003 07/07 A2989 RMK AO2 T00730070
Loading
Personal Weather Stations






























Interactive Weather Map New forecast layout! Learn more

10-Day Weather Forecast

Advertisements
Track Severe Weather on mobile